createdAt,value
2023-01-04T00:03:10.828Z,5.73
2023-01-04T00:08:16.061Z,4.63
2023-01-04T00:13:22.050Z,3.90
2023-01-04T00:18:27.768Z,20.60
2023-01-04T00:23:32.903Z,7.87
2023-01-04T00:28:38.552Z,7.50
2023-01-04T00:33:43.869Z,14.17
2023-01-04T00:38:50.635Z,5.00
2023-01-04T00:43:55.658Z,4.20
2023-01-04T00:49:01.475Z,6.23
2023-01-04T00:54:08.994Z,10.60
2023-01-04T00:59:16.448Z,6.10
2023-01-04T01:04:24.440Z,8.60
2023-01-04T01:09:29.827Z,5.07
2023-01-04T01:14:34.908Z,3.30
2023-01-04T01:19:40.102Z,4.53
2023-01-04T01:24:45.303Z,7.67
2023-01-04T01:29:50.399Z,6.50
2023-01-04T01:34:55.712Z,7.17
2023-01-04T01:40:00.962Z,9.13
2023-01-04T01:45:10.882Z,6.77
2023-01-04T01:50:19.418Z,4.83
2023-01-04T01:55:25.302Z,5.93
2023-01-04T02:00:31.280Z,5.70
2023-01-04T02:05:38.084Z,3.83
2023-01-04T02:10:43.538Z,6.37
2023-01-04T02:16:03.391Z,12.43
2023-01-04T02:21:11.645Z,13.07
2023-01-04T02:26:51.428Z,3.47
2023-01-04T02:31:59.630Z,13.83
2023-01-04T02:37:08.382Z,2.67
2023-01-04T02:42:22.246Z,6.97
2023-01-04T02:47:55.988Z,10.13
2023-01-04T02:53:12.962Z,4.20
2023-01-04T02:58:28.503Z,4.67
2023-01-04T03:03:54.483Z,11.03
2023-01-04T03:09:11.772Z,2.67
2023-01-04T03:14:30.865Z,5.27
2023-01-04T03:19:49.320Z,4.37
2023-01-04T03:25:13.224Z,3.73
2023-01-04T03:30:38.107Z,5.63
2023-01-04T03:35:52.299Z,3.67
2023-01-04T03:41:20.998Z,7.43
2023-01-04T03:46:58.817Z,4.37
2023-01-04T03:52:06.404Z,6.73
2023-01-04T03:57:13.765Z,2.90
2023-01-04T04:02:22.453Z,9.40
2023-01-04T04:07:45.556Z,8.00
2023-01-04T04:12:52.485Z,8.03
2023-01-04T04:17:57.625Z,8.03
2023-01-04T04:23:02.901Z,13.23
2023-01-04T04:28:08.049Z,5.87
2023-01-04T04:33:13.245Z,8.60
2023-01-04T04:38:18.631Z,14.93
2023-01-04T04:43:23.755Z,4.27
2023-01-04T04:48:29.085Z,5.27
2023-01-04T04:53:34.283Z,10.47
2023-01-04T04:58:39.794Z,15.63
2023-01-04T05:03:45.646Z,23.47
2023-01-04T05:08:51.225Z,5.27
2023-01-04T05:13:56.338Z,17.70
2023-01-04T05:19:01.503Z,5.97
2023-01-04T05:24:07.467Z,17.27
2023-01-04T05:29:14.544Z,10.10
2023-01-04T05:34:22.310Z,14.53
2023-01-04T05:39:27.051Z,23.43
2023-01-04T05:44:32.281Z,18.13
2023-01-04T05:49:37.456Z,6.60
2023-01-04T05:54:42.650Z,19.80
2023-01-04T05:59:47.827Z,12.67
2023-01-04T06:04:58.833Z,9.23
2023-01-04T06:10:05.142Z,14.93
2023-01-04T06:15:13.349Z,15.30
2023-01-04T06:20:20.563Z,11.47
2023-01-04T06:25:25.620Z,8.83
2023-01-04T06:30:38.744Z,12.30
2023-01-04T06:35:50.375Z,10.03
2023-01-04T06:40:57.514Z,14.67
2023-01-04T06:46:05.102Z,6.93
2023-01-04T06:51:11.621Z,10.90
2023-01-04T06:56:17.137Z,26.03
2023-01-04T07:01:22.264Z,21.60
2023-01-04T07:06:27.926Z,15.03
2023-01-04T07:11:33.131Z,16.13
2023-01-04T07:16:38.477Z,21.77
2023-01-04T07:21:45.279Z,27.90
2023-01-04T07:26:50.420Z,15.57
2023-01-04T07:31:57.357Z,22.83
2023-01-04T07:37:02.699Z,15.33
2023-01-04T07:42:09.058Z,12.40
2023-01-04T07:47:14.847Z,14.83
2023-01-04T07:52:20.046Z,16.03
2023-01-04T07:57:25.164Z,18.00
2023-01-04T08:02:30.530Z,16.27
2023-01-04T08:07:36.240Z,21.43
2023-01-04T08:12:41.452Z,12.13
2023-01-04T08:17:46.786Z,22.03
2023-01-04T08:22:51.991Z,10.97
2023-01-04T08:27:58.677Z,15.80
2023-01-04T08:33:03.945Z,16.67
2023-01-04T08:38:55.674Z,15.67
2023-01-04T08:43:18.295Z,12.27
2023-01-04T08:48:24.794Z,25.63
2023-01-04T08:53:31.711Z,14.77
2023-01-04T08:58:38.633Z,17.87
2023-01-04T09:03:43.877Z,13.07
2023-01-04T09:08:49.515Z,17.73
2023-01-04T09:14:06.702Z,9.80
2023-01-04T09:19:06.761Z,12.77
2023-01-04T09:24:12.296Z,15.93
2023-01-04T09:29:19.331Z,19.77
2023-01-04T09:34:27.745Z,15.87
2023-01-04T09:39:34.607Z,13.60
2023-01-04T09:50:06.393Z,12.00
2023-01-04T09:55:39.768Z,13.27
2023-01-04T10:00:43.747Z,15.93
2023-01-04T10:05:48.667Z,22.13
2023-01-04T10:11:19.949Z,22.70
2023-01-04T10:17:01.834Z,17.80
2023-01-04T10:21:43.449Z,16.40
2023-01-04T10:26:51.226Z,32.20
2023-01-04T10:32:08.848Z,15.43
2023-01-04T10:37:25.537Z,10.10
2023-01-04T10:42:39.362Z,27.50
2023-01-04T10:48:06.983Z,20.63
2023-01-04T10:53:18.109Z,19.03
2023-01-04T10:58:37.950Z,16.23
2023-01-04T11:03:46.340Z,19.03
2023-01-04T11:09:04.088Z,21.23
2023-01-04T11:14:10.515Z,14.17
2023-01-04T11:19:16.165Z,14.80
2023-01-04T11:24:31.830Z,36.27
2023-01-04T11:29:35.057Z,22.30
2023-01-04T11:34:54.920Z,15.80
2023-01-04T11:40:21.385Z,8.10
2023-01-04T11:45:29.197Z,14.47
2023-01-04T11:50:46.396Z,12.73
2023-01-04T11:55:52.779Z,12.20
2023-01-04T12:01:00.231Z,14.53
2023-01-04T12:06:21.753Z,8.77
2023-01-04T12:11:38.888Z,14.90
2023-01-04T12:16:53.755Z,16.87
2023-01-04T12:22:02.159Z,11.03
2023-01-04T12:27:10.510Z,18.10
2023-01-04T12:32:19.811Z,17.47
2023-01-04T12:37:44.576Z,11.97
2023-01-04T12:42:53.843Z,12.03
2023-01-04T12:48:16.728Z,21.07
2023-01-04T12:53:53.090Z,8.87
2023-01-04T12:59:25.251Z,11.30
2023-01-04T13:04:33.058Z,11.27
2023-01-04T13:09:46.433Z,7.87
2023-01-04T13:14:51.259Z,11.07
2023-01-04T13:20:01.118Z,10.13
2023-01-04T13:25:09.661Z,11.43
2023-01-04T13:30:35.469Z,8.30
2023-01-04T13:35:41.103Z,5.77
2023-01-04T13:40:49.824Z,10.60
2023-01-04T13:52:06.330Z,9.37
2023-01-04T13:57:11.237Z,5.83
2023-01-04T14:02:24.253Z,5.73
2023-01-04T14:13:33.094Z,7.17
2023-01-04T14:18:42.764Z,7.43
2023-01-04T14:24:15.612Z,5.77
2023-01-04T14:29:35.025Z,6.07
2023-01-04T14:34:49.137Z,7.80
2023-01-04T14:40:04.401Z,6.53
2023-01-04T14:45:18.286Z,7.30
2023-01-04T14:50:23.962Z,7.00
2023-01-04T14:55:31.810Z,5.53
2023-01-04T15:00:42.838Z,4.23
2023-01-04T15:11:23.847Z,4.70
2023-01-04T15:16:38.860Z,5.37
2023-01-04T15:21:47.374Z,2.90
2023-01-04T15:27:03.627Z,6.60
2023-01-04T15:32:12.166Z,2.13
2023-01-04T15:37:23.946Z,4.20
2023-01-04T15:42:47.906Z,2.53
2023-01-04T15:47:55.419Z,2.77
2023-01-04T15:53:04.600Z,3.83
2023-01-04T15:58:14.313Z,4.67
2023-01-04T16:03:21.171Z,3.17
2023-01-04T16:08:35.546Z,3.73
2023-01-04T16:25:12.793Z,4.37
2023-01-04T16:30:38.297Z,4.43
2023-01-04T16:36:17.163Z,3.20
2023-01-04T16:41:28.095Z,7.83
2023-01-04T16:46:54.260Z,4.10
2023-01-04T16:52:01.255Z,4.63
2023-01-04T16:57:30.784Z,4.00
2023-01-04T17:02:39.481Z,6.07
2023-01-04T17:07:46.617Z,3.63
2023-01-04T17:12:51.921Z,6.30
2023-01-04T17:18:10.432Z,7.13
2023-01-04T17:23:39.193Z,4.23
2023-01-04T17:28:50.193Z,1.63
2023-01-04T17:33:57.537Z,2.00
2023-01-04T17:39:07.348Z,3.80
2023-01-04T17:44:37.311Z,1.70
2023-01-04T18:00:48.532Z,4.73
2023-01-04T18:06:24.942Z,2.30
2023-01-04T18:22:58.464Z,3.23
2023-01-04T18:28:05.123Z,2.40
2023-01-04T18:33:13.747Z,2.90
2023-01-04T18:38:22.864Z,5.03
2023-01-04T18:44:13.094Z,1.20
2023-01-04T18:54:36.059Z,3.73
2023-01-04T18:59:48.931Z,2.67
2023-01-04T19:05:03.516Z,2.60
2023-01-04T19:21:34.697Z,1.63
2023-01-04T19:26:43.062Z,1.47
2023-01-04T19:38:10.583Z,2.93
2023-01-04T19:43:37.162Z,2.70
2023-01-04T19:48:47.149Z,2.27
2023-01-04T19:53:53.635Z,2.03
2023-01-04T19:59:07.821Z,3.30
2023-01-04T20:10:14.398Z,3.47
2023-01-04T20:15:36.563Z,1.87
2023-01-04T20:20:59.592Z,2.13
2023-01-04T20:26:36.485Z,2.90
2023-01-04T20:31:51.091Z,1.77
2023-01-04T20:37:02.091Z,1.67
2023-01-04T20:42:58.865Z,2.27
2023-01-04T20:48:05.353Z,3.40
2023-01-04T20:53:19.131Z,17.27
2023-01-04T20:58:34.988Z,8.83
2023-01-04T21:04:01.187Z,2.80
2023-01-04T21:09:14.556Z,1.60
2023-01-04T21:20:10.838Z,2.53
2023-01-04T21:25:24.057Z,2.63
2023-01-04T21:36:27.967Z,2.27
2023-01-04T21:41:47.814Z,1.80
2023-01-04T21:47:02.049Z,1.70
2023-01-04T21:52:11.001Z,2.60
2023-01-04T22:03:04.421Z,3.40
2023-01-04T22:08:32.361Z,1.50
2023-01-04T22:14:15.498Z,3.07
2023-01-04T22:20:02.457Z,3.27
2023-01-04T22:25:18.087Z,2.30
2023-01-04T22:30:30.581Z,2.03
2023-01-04T22:36:02.304Z,2.40
2023-01-04T22:58:15.865Z,3.07
2023-01-04T23:03:25.311Z,3.73
2023-01-04T23:08:32.079Z,1.47
2023-01-04T23:13:39.624Z,3.17
2023-01-04T23:18:54.093Z,2.60
2023-01-04T23:29:33.299Z,3.37
2023-01-04T23:47:13.241Z,3.90
